createdAt,value
2018-09-17T00:01:09.874Z,9.33
2018-09-17T00:03:52.824Z,9.47
2018-09-17T00:06:35.368Z,8.90
2018-09-17T00:09:18.012Z,9.30
2018-09-17T00:12:01.968Z,8.67
2018-09-17T00:14:44.545Z,8.97
2018-09-17T00:17:27.338Z,9.70
2018-09-17T00:20:09.943Z,9.30
2018-09-17T00:22:52.663Z,8.07
2018-09-17T00:25:35.665Z,8.33
2018-09-17T00:28:18.333Z,8.40
2018-09-17T00:31:01.137Z,7.90
2018-09-17T00:33:44.063Z,9.97
2018-09-17T00:36:26.887Z,7.93
2018-09-17T00:39:11.007Z,8.00
2018-09-17T00:41:55.401Z,8.40
2018-09-17T00:44:42.067Z,7.77
2018-09-17T00:47:25.067Z,7.67
2018-09-17T00:50:07.525Z,7.80
2018-09-17T00:52:50.348Z,8.27
2018-09-17T00:55:33.169Z,8.40
2018-09-17T00:58:16.286Z,8.50
2018-09-17T01:00:59.599Z,7.50
2018-09-17T01:03:42.154Z,7.70
2018-09-17T01:06:24.984Z,6.83
2018-09-17T01:09:08.618Z,8.13
2018-09-17T01:11:51.633Z,7.37
2018-09-17T01:14:38.994Z,7.30
2018-09-17T01:17:21.569Z,8.00
2018-09-17T01:20:04.564Z,8.03
2018-09-17T01:22:48.138Z,6.70
2018-09-17T01:25:31.013Z,6.30
2018-09-17T01:28:13.875Z,7.47
2018-09-17T01:30:56.477Z,6.83
2018-09-17T01:33:39.088Z,6.80
2018-09-17T01:36:26.205Z,7.17
2018-09-17T01:39:10.827Z,6.43
2018-09-17T01:41:54.016Z,7.00
2018-09-17T01:44:36.765Z,6.70
2018-09-17T01:47:20.256Z,6.70
2018-09-17T01:50:03.420Z,6.90
2018-09-17T01:52:46.278Z,6.63
2018-09-17T01:55:28.952Z,7.60
2018-09-17T01:58:11.837Z,7.13
2018-09-17T02:00:54.509Z,6.97
2018-09-17T02:03:37.386Z,7.13
2018-09-17T02:06:19.890Z,7.43
2018-09-17T02:09:08.632Z,6.83
2018-09-17T02:11:51.357Z,6.40
2018-09-17T02:14:34.002Z,6.40
2018-09-17T02:17:16.826Z,6.53
2018-09-17T02:19:59.544Z,6.00
2018-09-17T02:22:42.247Z,6.60
2018-09-17T02:25:25.116Z,6.87
2018-09-17T02:28:08.214Z,6.50
2018-09-17T02:30:51.806Z,7.33
2018-09-17T02:33:34.199Z,6.70
2018-09-17T02:36:16.923Z,6.40
2018-09-17T02:38:59.794Z,6.43
2018-09-17T02:41:42.336Z,7.87
2018-09-17T02:44:25.336Z,6.33
2018-09-17T02:47:08.100Z,6.40
2018-09-17T02:49:51.144Z,6.60
2018-09-17T02:52:33.888Z,6.43
2018-09-17T02:55:16.492Z,7.10
2018-09-17T02:57:59.206Z,7.17
2018-09-17T03:00:42.062Z,7.77
2018-09-17T03:03:24.454Z,6.63
2018-09-17T03:06:07.149Z,7.37
2018-09-17T03:08:50.228Z,7.40
2018-09-17T03:11:32.653Z,7.03
2018-09-17T03:14:15.352Z,7.20
2018-09-17T03:17:15.278Z,7.63
2018-09-17T03:19:57.912Z,6.77
2018-09-17T03:22:40.533Z,6.93
2018-09-17T03:25:23.182Z,6.60
2018-09-17T03:28:06.122Z,6.80
2018-09-17T03:30:48.665Z,6.83
2018-09-17T03:33:31.537Z,6.90
2018-09-17T03:36:14.750Z,6.63
2018-09-17T03:38:58.341Z,6.27
2018-09-17T03:41:42.349Z,6.13
2018-09-17T03:44:25.278Z,6.90
2018-09-17T03:47:08.167Z,7.03
2018-09-17T03:49:50.929Z,7.27
2018-09-17T03:52:33.204Z,7.53
2018-09-17T03:55:16.645Z,7.13
2018-09-17T03:58:00.302Z,6.67
2018-09-17T04:00:43.532Z,7.70
2018-09-17T04:03:26.204Z,7.67
2018-09-17T04:06:08.883Z,8.30
2018-09-17T04:08:51.635Z,7.53
2018-09-17T04:11:34.464Z,9.03
2018-09-17T04:14:17.083Z,8.43
2018-09-17T04:16:59.722Z,9.77
2018-09-17T04:19:42.456Z,8.50
2018-09-17T04:22:25.363Z,8.43
2018-09-17T04:25:08.194Z,7.90
2018-09-17T04:27:50.757Z,9.20
2018-09-17T04:30:33.630Z,9.30
2018-09-17T04:33:16.293Z,8.70
2018-09-17T04:35:58.876Z,8.97
2018-09-17T04:38:41.463Z,9.07
2018-09-17T04:41:24.570Z,10.80
2018-09-17T04:44:08.984Z,10.13
2018-09-17T04:46:51.767Z,10.00
2018-09-17T04:49:34.400Z,10.13
2018-09-17T04:52:17.491Z,10.30
2018-09-17T04:54:59.828Z,9.87
2018-09-17T04:57:42.321Z,10.00
2018-09-17T05:00:24.936Z,10.13
2018-09-17T05:03:07.671Z,10.73
2018-09-17T05:05:50.545Z,10.07
2018-09-17T05:08:33.362Z,11.90
2018-09-17T05:11:18.214Z,11.63
2018-09-17T05:14:01.170Z,11.70
2018-09-17T05:16:45.354Z,11.90
2018-09-17T05:19:28.119Z,12.23
2018-09-17T05:22:10.752Z,12.37
2018-09-17T05:24:53.613Z,12.10
2018-09-17T05:27:36.408Z,13.03
2018-09-17T05:30:19.798Z,12.53
2018-09-17T05:33:03.016Z,13.20
2018-09-17T05:35:45.349Z,13.30
2018-09-17T05:38:28.650Z,11.67
2018-09-17T05:41:11.764Z,13.17
2018-09-17T05:43:54.684Z,12.50
2018-09-17T05:46:41.769Z,11.80
2018-09-17T05:49:24.145Z,11.20
2018-09-17T05:52:07.083Z,13.00
2018-09-17T05:54:49.833Z,11.73
2018-09-17T05:57:32.741Z,11.87
2018-09-17T06:00:15.852Z,12.10
2018-09-17T06:02:59.917Z,11.90
2018-09-17T06:05:43.202Z,11.67
2018-09-17T06:08:25.930Z,9.63
2018-09-17T06:11:12.857Z,10.13
2018-09-17T06:13:55.678Z,9.33
2018-09-17T06:16:39.598Z,9.37
2018-09-17T06:19:23.206Z,9.30
2018-09-17T06:22:06.949Z,7.70
2018-09-17T06:24:49.818Z,8.00
2018-09-17T06:27:32.649Z,8.07
2018-09-17T06:30:15.266Z,8.53
2018-09-17T06:32:58.132Z,7.90
2018-09-17T06:35:40.876Z,8.43
2018-09-17T06:38:28.546Z,8.07
2018-09-17T06:41:11.289Z,7.43
2018-09-17T06:43:54.149Z,7.90
2018-09-17T06:46:36.923Z,8.30
2018-09-17T06:49:19.620Z,6.80
2018-09-17T06:52:02.445Z,8.60
2018-09-17T06:54:44.919Z,7.77
2018-09-17T06:57:28.211Z,7.70
2018-09-17T07:00:11.935Z,8.00
2018-09-17T07:02:55.199Z,8.20
2018-09-17T07:05:38.443Z,7.20
2018-09-17T07:08:21.197Z,7.30
2018-09-17T07:11:04.164Z,6.93
2018-09-17T07:13:46.528Z,7.77
2018-09-17T07:16:29.120Z,7.90
2018-09-17T07:19:12.637Z,5.83
2018-09-17T07:21:55.436Z,6.63
2018-09-17T07:24:40.487Z,6.17
2018-09-17T07:27:23.111Z,6.43
2018-09-17T07:30:05.953Z,5.63
2018-09-17T07:32:48.744Z,6.73
2018-09-17T07:35:31.576Z,6.40
2018-09-17T07:38:14.059Z,6.37
2018-09-17T07:40:56.648Z,6.57
2018-09-17T07:43:39.657Z,5.77
2018-09-17T07:46:22.187Z,6.07
2018-09-17T07:49:05.121Z,5.30
2018-09-17T07:51:52.050Z,4.80
2018-09-17T07:54:34.528Z,5.57
2018-09-17T07:57:17.322Z,4.87
2018-09-17T07:59:59.933Z,4.45
2018-09-17T08:02:43.748Z,4.97
2018-09-17T08:05:26.402Z,4.35
2018-09-17T08:08:09.124Z,4.42
2018-09-17T08:10:51.680Z,4.65
2018-09-17T08:13:34.296Z,5.55
2018-09-17T08:16:16.740Z,5.12
2018-09-17T08:19:00.188Z,6.37
2018-09-17T08:21:43.113Z,5.00
2018-09-17T08:24:25.804Z,5.60
2018-09-17T08:27:08.421Z,4.60
2018-09-17T08:29:51.029Z,5.22
2018-09-17T08:32:33.821Z,5.35
2018-09-17T08:35:16.681Z,3.95
2018-09-17T08:37:59.384Z,5.30
2018-09-17T08:40:42.285Z,5.90
2018-09-17T08:43:29.514Z,5.03
2018-09-17T08:46:12.772Z,5.22
2018-09-17T08:48:55.348Z,5.00
2018-09-17T08:51:38.363Z,4.92
2018-09-17T08:54:20.796Z,5.40
2018-09-17T08:57:07.547Z,5.33
2018-09-17T08:59:55.333Z,5.17
2018-09-17T09:02:44.479Z,5.78
2018-09-17T09:05:31.824Z,5.17
2018-09-17T09:08:14.634Z,4.92
2018-09-17T09:11:02.456Z,5.10
2018-09-17T09:13:50.525Z,5.22
2018-09-17T09:16:33.568Z,5.30
2018-09-17T09:19:16.362Z,5.30
2018-09-17T09:22:03.316Z,5.20
2018-09-17T09:24:45.941Z,5.75
2018-09-17T09:27:28.829Z,5.80
2018-09-17T09:30:16.500Z,5.55
2018-09-17T09:33:03.454Z,5.20
2018-09-17T09:35:46.784Z,4.85
2018-09-17T09:38:29.874Z,5.15
2018-09-17T09:41:12.756Z,4.60
2018-09-17T09:43:55.069Z,5.03
2018-09-17T09:46:40.614Z,4.47
2018-09-17T09:49:24.166Z,4.70
2018-09-17T09:52:06.794Z,4.78
2018-09-17T09:54:49.368Z,3.95
2018-09-17T09:57:32.452Z,4.22
2018-09-17T10:00:20.175Z,4.37
2018-09-17T10:03:22.184Z,4.22
2018-09-17T10:06:04.669Z,4.30
2018-09-17T10:08:52.750Z,3.90
2018-09-17T10:11:40.533Z,3.40
2018-09-17T10:14:28.209Z,3.20
2018-09-17T10:17:16.004Z,3.12
2018-09-17T10:19:58.704Z,3.40
2018-09-17T10:22:46.465Z,3.45
2018-09-17T10:25:29.085Z,2.95
2018-09-17T10:28:12.170Z,3.22
2018-09-17T10:30:54.974Z,3.85
2018-09-17T10:33:38.269Z,3.65
2018-09-17T10:36:20.577Z,3.30
2018-09-17T10:39:03.563Z,3.77
2018-09-17T10:41:46.093Z,3.25
2018-09-17T10:44:29.063Z,3.65
2018-09-17T10:47:12.015Z,3.70
2018-09-17T10:49:54.424Z,3.55
2018-09-17T10:52:37.220Z,3.50
2018-09-17T10:55:20.612Z,3.65
2018-09-17T10:58:07.960Z,4.28
2018-09-17T11:00:50.939Z,3.70
2018-09-17T11:03:33.725Z,3.60
2018-09-17T11:06:16.640Z,3.67
2018-09-17T11:08:59.615Z,3.58
2018-09-17T11:11:42.614Z,3.40
2018-09-17T11:14:25.488Z,3.70
2018-09-17T11:17:08.074Z,4.08
2018-09-17T11:19:51.162Z,3.60
2018-09-17T11:22:34.696Z,3.75
2018-09-17T11:25:17.356Z,3.45
2018-09-17T11:28:00.125Z,3.83
2018-09-17T11:30:42.864Z,3.25
2018-09-17T11:33:25.694Z,3.92
2018-09-17T11:36:08.206Z,3.85
2018-09-17T11:38:50.948Z,3.60
2018-09-17T11:41:33.764Z,3.15
2018-09-17T11:44:16.439Z,3.60
2018-09-17T11:46:59.340Z,3.80
2018-09-17T11:49:42.093Z,4.30
2018-09-17T11:52:25.396Z,3.10
2018-09-17T11:55:13.838Z,2.90
2018-09-17T11:57:57.036Z,2.80
2018-09-17T12:00:45.505Z,2.58
2018-09-17T12:03:33.102Z,2.12
2018-09-17T12:06:24.140Z,3.12
2018-09-17T12:09:09.099Z,2.75
2018-09-17T12:11:52.170Z,2.60
2018-09-17T12:14:34.771Z,2.83
2018-09-17T12:17:17.396Z,2.80
2018-09-17T12:20:01.245Z,2.80
2018-09-17T12:22:44.122Z,2.92
2018-09-17T12:25:26.948Z,3.37
2018-09-17T12:28:09.691Z,2.85
2018-09-17T12:30:52.621Z,2.75
2018-09-17T12:33:35.600Z,3.45
2018-09-17T12:36:17.947Z,2.75
2018-09-17T12:39:01.063Z,2.75
2018-09-17T12:41:43.496Z,3.30
2018-09-17T12:44:31.234Z,2.90
2018-09-17T12:47:13.986Z,2.70
2018-09-17T12:50:01.226Z,2.75
2018-09-17T12:52:44.343Z,3.00
2018-09-17T12:55:27.302Z,2.75
2018-09-17T12:58:09.843Z,2.92
2018-09-17T13:00:52.468Z,3.37
2018-09-17T13:03:35.840Z,4.03
2018-09-17T13:06:19.229Z,3.50
2018-09-17T13:09:01.630Z,3.52
2018-09-17T13:11:44.420Z,3.65
2018-09-17T13:14:28.483Z,3.47
2018-09-17T13:17:10.917Z,3.77
2018-09-17T13:19:53.958Z,3.40
2018-09-17T13:22:36.638Z,4.17
2018-09-17T13:25:19.363Z,3.62
2018-09-17T13:28:05.865Z,3.30
2018-09-17T13:30:48.907Z,3.85
2018-09-17T13:33:32.230Z,3.22
2018-09-17T13:36:16.580Z,3.62
2018-09-17T13:39:00.380Z,3.70
2018-09-17T13:41:43.697Z,3.40
2018-09-17T13:44:26.443Z,3.10
2018-09-17T13:47:14.578Z,3.52
2018-09-17T13:49:56.895Z,3.20
2018-09-17T13:52:39.801Z,4.08
2018-09-17T13:55:22.427Z,3.62
2018-09-17T13:58:05.001Z,3.15
2018-09-17T14:00:47.634Z,3.45
2018-09-17T14:03:30.315Z,3.67
2018-09-17T14:06:12.972Z,3.40
2018-09-17T14:08:56.278Z,3.80
2018-09-17T14:11:40.372Z,4.08
2018-09-17T14:14:23.170Z,4.00
2018-09-17T14:17:06.539Z,3.83
2018-09-17T14:19:54.082Z,4.33
2018-09-17T14:22:36.539Z,4.12
2018-09-17T14:25:19.476Z,4.42
2018-09-17T14:28:02.222Z,3.50
2018-09-17T14:30:45.020Z,4.28
2018-09-17T14:33:33.065Z,3.65
2018-09-17T14:36:20.733Z,3.30
2018-09-17T14:39:03.204Z,3.45
2018-09-17T14:41:50.416Z,3.77
2018-09-17T14:44:34.948Z,3.30
2018-09-17T14:47:18.135Z,4.58
2018-09-17T14:50:01.016Z,3.70
2018-09-17T14:52:43.665Z,3.40
2018-09-17T14:55:26.447Z,3.22
2018-09-17T14:58:09.108Z,3.80
2018-09-17T15:00:51.935Z,3.80
2018-09-17T15:03:34.995Z,3.60
2018-09-17T15:06:17.388Z,3.35
2018-09-17T15:09:00.313Z,3.40
2018-09-17T15:11:42.827Z,3.15
2018-09-17T15:14:25.643Z,3.83
2018-09-17T15:17:08.266Z,3.62
2018-09-17T15:19:51.257Z,4.20
2018-09-17T15:22:34.193Z,3.50
2018-09-17T15:25:17.259Z,3.10
2018-09-17T15:28:00.952Z,4.07
2018-09-17T15:30:43.285Z,4.10
2018-09-17T15:33:26.232Z,3.60
2018-09-17T15:36:08.686Z,4.03
2018-09-17T15:38:51.433Z,4.00
2018-09-17T15:41:34.004Z,3.80
2018-09-17T15:44:17.013Z,3.63
2018-09-17T15:47:00.070Z,3.87
2018-09-17T15:49:42.525Z,4.23
2018-09-17T15:52:25.213Z,4.80
2018-09-17T15:55:07.946Z,4.20
2018-09-17T15:57:50.662Z,3.63
2018-09-17T16:00:33.577Z,4.00
2018-09-17T16:03:16.193Z,4.33
2018-09-17T16:05:59.642Z,4.53
2018-09-17T16:08:42.701Z,5.10
2018-09-17T16:11:26.581Z,4.37
2018-09-17T16:14:09.248Z,4.50
2018-09-17T16:16:51.885Z,4.10
2018-09-17T16:19:34.804Z,4.97
2018-09-17T16:22:17.605Z,4.33
2018-09-17T16:25:04.662Z,4.30
2018-09-17T16:27:47.254Z,4.67
2018-09-17T16:30:29.750Z,4.80
2018-09-17T16:33:12.797Z,4.73
2018-09-17T16:35:56.007Z,4.70
2018-09-17T16:38:38.969Z,5.00
2018-09-17T16:41:26.018Z,5.07
2018-09-17T16:44:08.386Z,5.50
2018-09-17T16:46:55.227Z,5.20
2018-09-17T16:49:38.054Z,5.30
2018-09-17T16:52:20.797Z,6.27
2018-09-17T16:55:03.501Z,5.37
2018-09-17T16:57:46.235Z,5.33
2018-09-17T17:00:28.924Z,5.40
2018-09-17T17:03:12.016Z,5.93
2018-09-17T17:05:54.364Z,5.90
2018-09-17T17:08:38.136Z,5.40
2018-09-17T17:11:21.076Z,6.00
2018-09-17T17:14:04.012Z,5.60
2018-09-17T17:16:47.688Z,6.60
2018-09-17T17:19:30.963Z,6.40
2018-09-17T17:22:13.840Z,6.33
2018-09-17T17:24:56.612Z,5.77
2018-09-17T17:27:39.301Z,5.60
2018-09-17T17:30:21.730Z,6.13
2018-09-17T17:33:04.625Z,6.13
2018-09-17T17:35:47.488Z,5.80
2018-09-17T17:38:30.723Z,6.50
2018-09-17T17:41:13.726Z,6.47
2018-09-17T17:43:56.704Z,6.40
2018-09-17T17:46:39.508Z,7.10
2018-09-17T17:49:22.092Z,6.17
2018-09-17T17:52:05.121Z,6.93
2018-09-17T17:54:48.744Z,6.60
2018-09-17T17:57:31.897Z,5.77
2018-09-17T18:00:14.382Z,6.50
2018-09-17T18:02:57.117Z,5.77
2018-09-17T18:05:39.810Z,6.07
2018-09-17T18:08:22.830Z,5.57
2018-09-17T18:11:05.973Z,6.00
2018-09-17T18:13:48.494Z,6.20
2018-09-17T18:16:31.757Z,5.80
2018-09-17T18:19:15.226Z,6.13
2018-09-17T18:21:57.836Z,6.40
2018-09-17T18:24:41.358Z,6.50
2018-09-17T18:27:24.660Z,6.07
2018-09-17T18:30:07.999Z,6.97
2018-09-17T18:32:52.024Z,6.50
2018-09-17T18:35:36.211Z,7.03
2018-09-17T18:38:20.097Z,6.80
2018-09-17T18:41:04.218Z,6.90
2018-09-17T18:43:47.324Z,6.60
2018-09-17T18:46:31.120Z,6.27
2018-09-17T18:49:15.263Z,7.20
2018-09-17T18:51:58.008Z,6.37
2018-09-17T18:54:40.603Z,7.30
2018-09-17T18:57:23.460Z,6.40
2018-09-17T19:00:07.767Z,7.30
2018-09-17T19:02:51.360Z,7.80
2018-09-17T19:05:38.841Z,6.40
2018-09-17T19:08:22.537Z,6.73
2018-09-17T19:11:05.063Z,7.10
2018-09-17T19:13:53.170Z,7.97
2018-09-17T19:16:41.384Z,7.80
2018-09-17T19:19:24.241Z,6.70
2018-09-17T19:22:11.917Z,7.53
2018-09-17T19:24:54.355Z,7.77
2018-09-17T19:27:46.212Z,7.47
2018-09-17T19:30:29.180Z,7.57
2018-09-17T19:33:12.500Z,7.03
2018-09-17T19:35:56.722Z,7.07
2018-09-17T19:38:46.167Z,6.70
2018-09-17T19:41:29.847Z,7.03
2018-09-17T19:44:13.624Z,6.13
2018-09-17T19:46:57.004Z,6.80
2018-09-17T19:49:39.924Z,6.47
2018-09-17T19:52:25.028Z,7.73
2018-09-17T19:55:12.255Z,8.90
2018-09-17T19:57:59.992Z,6.90
2018-09-17T20:00:44.115Z,7.23
2018-09-17T20:03:30.725Z,7.97
2018-09-17T20:06:18.798Z,7.60
2018-09-17T20:09:01.885Z,7.20
2018-09-17T20:11:51.592Z,7.03
2018-09-17T20:14:35.088Z,7.93
2018-09-17T20:17:18.745Z,7.27
2018-09-17T20:20:01.543Z,8.43
2018-09-17T20:22:44.447Z,7.27
2018-09-17T20:25:26.760Z,6.53
2018-09-17T20:28:09.911Z,6.90
2018-09-17T20:30:53.776Z,6.30
2018-09-17T20:33:37.412Z,6.83
2018-09-17T20:36:20.631Z,6.50
2018-09-17T20:39:05.659Z,6.07
2018-09-17T20:41:48.592Z,6.73
2018-09-17T20:44:31.145Z,7.03
2018-09-17T20:47:13.842Z,6.63
2018-09-17T20:49:57.167Z,5.80
2018-09-17T20:52:40.218Z,6.00
2018-09-17T20:55:22.914Z,6.00
2018-09-17T20:58:05.730Z,6.80
2018-09-17T21:00:49.815Z,5.90
2018-09-17T21:03:32.146Z,6.43
2018-09-17T21:06:15.037Z,5.77
2018-09-17T21:09:00.088Z,6.57
2018-09-17T21:11:42.712Z,6.13
2018-09-17T21:14:25.163Z,6.93
2018-09-17T21:17:07.922Z,6.30
2018-09-17T21:19:50.680Z,6.37
2018-09-17T21:22:33.879Z,6.43
2018-09-17T21:25:17.362Z,8.93
2018-09-17T21:27:59.827Z,7.07
2018-09-17T21:30:42.576Z,7.47
2018-09-17T21:33:25.369Z,7.70
2018-09-17T21:36:07.896Z,6.77
2018-09-17T21:38:50.883Z,7.57
2018-09-17T21:41:33.474Z,6.50
2018-09-17T21:44:16.498Z,5.60
2018-09-17T21:46:59.051Z,7.03
2018-09-17T21:49:42.272Z,7.60
2018-09-17T21:52:24.971Z,8.20
2018-09-17T21:55:08.541Z,6.73
2018-09-17T21:57:51.157Z,7.60
2018-09-17T22:00:38.978Z,8.60
2018-09-17T22:03:21.941Z,7.20
2018-09-17T22:06:04.531Z,6.60
2018-09-17T22:08:47.286Z,7.80
2018-09-17T22:11:30.707Z,8.00
2018-09-17T22:14:19.014Z,8.57
2018-09-17T22:17:02.430Z,7.60
2018-09-17T22:19:45.227Z,8.20
2018-09-17T22:22:28.469Z,8.90
2018-09-17T22:25:11.497Z,6.90
2018-09-17T22:27:54.300Z,6.73
2018-09-17T22:30:36.972Z,8.17
2018-09-17T22:33:20.010Z,7.40
2018-09-17T22:36:03.141Z,7.13
2018-09-17T22:38:46.366Z,6.73
2018-09-17T22:41:28.873Z,6.53
2018-09-17T22:44:11.585Z,6.90
2018-09-17T22:46:54.519Z,7.30
2018-09-17T22:49:37.136Z,7.17
2018-09-17T22:52:20.329Z,7.37
2018-09-17T22:55:03.434Z,7.10
2018-09-17T22:57:46.225Z,7.60
2018-09-17T23:00:28.893Z,7.00
2018-09-17T23:03:12.649Z,6.80
2018-09-17T23:05:55.582Z,6.37
2018-09-17T23:08:38.387Z,7.00
2018-09-17T23:11:21.011Z,6.27
2018-09-17T23:14:03.553Z,6.50
2018-09-17T23:16:46.281Z,6.47
2018-09-17T23:19:28.889Z,6.40
2018-09-17T23:22:11.548Z,6.40
2018-09-17T23:24:54.377Z,5.93
2018-09-17T23:27:38.082Z,5.83
2018-09-17T23:30:20.990Z,5.60
2018-09-17T23:33:03.822Z,5.73
2018-09-17T23:35:47.168Z,5.93
2018-09-17T23:38:29.664Z,6.03
2018-09-17T23:41:12.512Z,5.80
2018-09-17T23:43:56.056Z,6.50
2018-09-17T23:46:39.284Z,6.50
2018-09-17T23:49:21.852Z,6.90
2018-09-17T23:52:04.532Z,6.30
2018-09-17T23:54:47.250Z,7.23
2018-09-17T23:57:30.050Z,6.13
